createdAt,value
2022-12-19T00:00:38.333Z,20.60
2022-12-19T00:03:06.829Z,20.53
2022-12-19T00:05:38.820Z,20.10
2022-12-19T00:08:16.831Z,21.50
2022-12-19T00:10:55.964Z,20.43
2022-12-19T00:13:24.278Z,19.80
2022-12-19T00:15:52.799Z,19.43
2022-12-19T00:18:21.355Z,19.83
2022-12-19T00:20:57.007Z,21.50
2022-12-19T00:23:25.196Z,20.27
2022-12-19T00:26:06.979Z,20.07
2022-12-19T00:28:35.163Z,20.03
2022-12-19T00:31:05.071Z,20.20
2022-12-19T00:33:33.431Z,20.30
2022-12-19T00:36:06.618Z,21.33
2022-12-19T00:38:35.848Z,20.80
2022-12-19T00:41:13.726Z,23.30
2022-12-19T00:43:42.654Z,21.27
2022-12-19T00:46:12.835Z,23.60
2022-12-19T00:48:42.134Z,22.50
2022-12-19T00:51:12.923Z,23.03
2022-12-19T00:53:44.173Z,22.70
2022-12-19T00:56:16.145Z,22.10
2022-12-19T00:58:47.141Z,23.97
2022-12-19T01:01:18.206Z,21.73
2022-12-19T01:04:18.541Z,23.37
2022-12-19T01:06:36.397Z,23.20
2022-12-19T01:09:10.218Z,23.70
2022-12-19T01:11:57.381Z,23.63
2022-12-19T01:14:26.208Z,23.70
2022-12-19T01:16:54.346Z,24.50
2022-12-19T01:19:22.504Z,24.90
2022-12-19T01:21:50.557Z,23.63
2022-12-19T01:24:19.913Z,23.73
2022-12-19T01:26:52.365Z,24.07
2022-12-19T01:29:20.761Z,24.37
2022-12-19T01:31:49.438Z,25.07
2022-12-19T01:34:17.667Z,25.30
2022-12-19T01:36:45.762Z,25.03
2022-12-19T01:39:14.241Z,25.60
2022-12-19T01:41:42.315Z,25.90
2022-12-19T01:44:11.800Z,25.00
2022-12-19T01:46:43.167Z,25.00
2022-12-19T01:49:17.213Z,25.27
2022-12-19T01:51:49.904Z,24.57
2022-12-19T01:54:22.963Z,26.67
2022-12-19T01:56:52.906Z,27.47
2022-12-19T01:59:26.279Z,28.00
2022-12-19T02:01:59.897Z,27.67
2022-12-19T02:04:32.635Z,25.33
2022-12-19T02:07:07.513Z,25.73
2022-12-19T02:09:46.007Z,26.50
2022-12-19T02:12:15.364Z,27.67
2022-12-19T02:14:45.348Z,25.97
2022-12-19T02:17:22.019Z,26.27
2022-12-19T02:20:25.929Z,26.37
2022-12-19T02:23:12.132Z,27.03
2022-12-19T02:26:02.621Z,26.70
2022-12-19T02:28:44.503Z,26.50
2022-12-19T02:31:20.507Z,26.13
2022-12-19T02:33:56.682Z,26.70
2022-12-19T02:36:30.513Z,27.23
2022-12-19T02:39:08.244Z,26.80
2022-12-19T02:41:44.129Z,25.27
2022-12-19T02:44:23.157Z,27.23
2022-12-19T02:46:54.362Z,27.20
2022-12-19T02:49:30.905Z,27.70
2022-12-19T02:52:10.255Z,26.10
2022-12-19T02:54:39.447Z,27.10
2022-12-19T02:57:21.260Z,26.80
2022-12-19T03:00:03.430Z,26.93
2022-12-19T03:02:43.531Z,27.67
2022-12-19T03:05:25.942Z,25.53
2022-12-19T03:08:00.962Z,27.87
2022-12-19T03:10:35.653Z,26.10
2022-12-19T03:13:08.782Z,24.27
2022-12-19T03:15:40.653Z,26.83
2022-12-19T03:18:11.670Z,26.60
2022-12-19T03:20:45.789Z,26.93
2022-12-19T03:23:15.137Z,27.27
2022-12-19T03:25:47.129Z,25.70
2022-12-19T03:28:22.255Z,27.90
2022-12-19T03:30:51.053Z,27.20
2022-12-19T03:33:21.906Z,27.23
2022-12-19T03:35:51.580Z,27.10
2022-12-19T03:38:21.578Z,27.20
2022-12-19T03:40:50.980Z,28.10
2022-12-19T03:43:19.889Z,26.47
2022-12-19T03:45:54.365Z,28.90
2022-12-19T03:48:34.229Z,27.83
2022-12-19T03:51:10.139Z,25.73
2022-12-19T03:53:49.166Z,27.13
2022-12-19T03:56:26.393Z,26.73
2022-12-19T03:59:01.871Z,27.07
2022-12-19T04:01:30.390Z,28.73
2022-12-19T04:04:01.254Z,31.20
2022-12-19T04:06:32.155Z,28.50
2022-12-19T04:09:01.405Z,29.57
2022-12-19T04:11:35.525Z,26.70
2022-12-19T04:14:08.777Z,30.20
2022-12-19T04:16:44.170Z,28.40
2022-12-19T04:19:19.948Z,28.80
2022-12-19T04:21:54.556Z,28.03
2022-12-19T04:24:27.308Z,28.43
2022-12-19T04:26:57.062Z,29.53
2022-12-19T04:29:27.629Z,28.00
2022-12-19T04:31:56.204Z,27.83
2022-12-19T04:34:25.631Z,27.13
2022-12-19T04:36:53.815Z,27.97
2022-12-19T04:39:21.888Z,30.43
2022-12-19T04:41:50.326Z,30.00
2022-12-19T04:44:18.511Z,31.90
2022-12-19T04:46:46.783Z,33.10
2022-12-19T04:49:15.513Z,28.90
2022-12-19T04:51:45.022Z,36.73
2022-12-19T04:54:13.081Z,31.87
2022-12-19T04:56:41.301Z,30.17
2022-12-19T04:59:09.357Z,31.23
2022-12-19T05:01:37.561Z,30.40
2022-12-19T05:04:05.849Z,30.60
2022-12-19T05:06:34.258Z,30.83
2022-12-19T05:09:03.761Z,32.20
2022-12-19T05:11:34.341Z,30.90
2022-12-19T05:14:02.483Z,31.00
2022-12-19T05:16:30.643Z,32.53
2022-12-19T05:18:58.800Z,30.13
2022-12-19T05:21:26.916Z,32.53
2022-12-19T05:23:55.667Z,29.23
2022-12-19T05:26:25.165Z,30.30
2022-12-19T05:28:53.505Z,30.93
2022-12-19T05:31:22.725Z,35.67
2022-12-19T05:33:51.213Z,30.20
2022-12-19T05:36:20.166Z,30.70
2022-12-19T05:38:48.296Z,31.10
2022-12-19T05:41:18.175Z,31.17
2022-12-19T05:43:51.120Z,31.60
2022-12-19T05:46:19.644Z,30.37
2022-12-19T05:48:48.890Z,32.00
2022-12-19T05:51:17.161Z,31.00
2022-12-19T05:53:45.336Z,30.47
2022-12-19T05:56:15.445Z,30.10
2022-12-19T05:58:44.933Z,29.63
2022-12-19T06:01:16.298Z,31.00
2022-12-19T06:03:45.214Z,31.23
2022-12-19T06:06:18.104Z,30.77
2022-12-19T06:08:46.280Z,30.53
2022-12-19T06:11:15.603Z,32.20
2022-12-19T06:13:43.780Z,32.40
2022-12-19T06:16:15.211Z,32.90
2022-12-19T06:18:45.427Z,31.77
2022-12-19T06:21:15.423Z,33.40
2022-12-19T06:23:44.082Z,33.37
2022-12-19T06:26:19.118Z,32.07
2022-12-19T06:28:48.206Z,32.80
2022-12-19T06:31:18.751Z,31.73
2022-12-19T06:33:47.086Z,34.10
2022-12-19T06:36:19.703Z,33.23
2022-12-19T06:38:48.235Z,31.83
2022-12-19T06:41:34.171Z,32.60
2022-12-19T06:44:03.374Z,32.63
2022-12-19T06:46:33.447Z,32.10
2022-12-19T06:49:01.832Z,32.03
2022-12-19T06:51:30.009Z,36.00
2022-12-19T06:53:58.348Z,32.70
2022-12-19T06:56:26.436Z,36.00
2022-12-19T06:58:54.691Z,33.43
2022-12-19T07:01:35.727Z,33.80
2022-12-19T07:04:05.765Z,32.27
2022-12-19T07:06:34.082Z,35.63
2022-12-19T07:09:02.290Z,33.73
2022-12-19T07:11:30.370Z,34.10
2022-12-19T07:13:58.480Z,32.83
2022-12-19T07:16:28.150Z,32.60
2022-12-19T07:18:56.375Z,33.77
2022-12-19T07:21:25.979Z,32.60
2022-12-19T07:23:54.276Z,37.20
2022-12-19T07:26:23.241Z,33.87
2022-12-19T07:28:51.465Z,35.80
2022-12-19T07:31:19.776Z,35.50
2022-12-19T07:33:47.921Z,35.20
2022-12-19T07:36:15.994Z,34.90
2022-12-19T07:38:45.564Z,35.67
2022-12-19T07:41:13.731Z,34.60
2022-12-19T07:43:42.105Z,37.23
2022-12-19T07:46:10.391Z,36.97
2022-12-19T07:48:38.704Z,35.20
2022-12-19T07:51:07.195Z,35.00
2022-12-19T07:53:35.301Z,36.80
2022-12-19T07:56:04.972Z,33.40
2022-12-19T07:58:33.398Z,38.07
2022-12-19T08:01:02.542Z,35.77
2022-12-19T08:03:33.576Z,36.80
2022-12-19T08:06:02.584Z,36.73
2022-12-19T08:08:31.219Z,36.37
2022-12-19T08:11:08.966Z,37.40
2022-12-19T08:13:40.918Z,36.03
2022-12-19T08:16:13.366Z,38.13
2022-12-19T08:18:41.676Z,37.10
2022-12-19T08:21:10.241Z,35.73
2022-12-19T08:23:39.080Z,38.63
2022-12-19T08:26:12.031Z,35.90
2022-12-19T08:28:40.419Z,35.47
2022-12-19T08:31:09.704Z,38.57
2022-12-19T08:33:38.553Z,38.63
2022-12-19T08:36:08.051Z,37.47
2022-12-19T08:38:36.936Z,41.20
2022-12-19T08:41:05.134Z,40.10
2022-12-19T08:43:35.559Z,37.90
2022-12-19T08:46:03.852Z,39.87
2022-12-19T08:48:33.107Z,38.57
2022-12-19T08:51:03.847Z,40.90
2022-12-19T08:53:34.676Z,37.20
2022-12-19T08:56:05.908Z,40.57
2022-12-19T08:58:35.903Z,38.73
2022-12-19T09:01:06.281Z,39.77
2022-12-19T09:03:47.890Z,39.30
2022-12-19T09:06:22.926Z,39.83
2022-12-19T09:08:51.078Z,40.90
2022-12-19T09:11:21.465Z,39.23
2022-12-19T09:13:51.677Z,39.67
2022-12-19T09:16:21.579Z,38.63
2022-12-19T09:18:51.297Z,39.90
2022-12-19T09:21:20.627Z,39.97
2022-12-19T09:23:50.539Z,40.00
2022-12-19T09:26:18.964Z,38.80
2022-12-19T09:28:48.569Z,37.27
2022-12-19T09:31:20.218Z,40.50
2022-12-19T09:33:49.188Z,39.70
2022-12-19T09:36:20.388Z,40.13
2022-12-19T09:38:49.204Z,39.07
2022-12-19T09:41:41.746Z,38.93
2022-12-19T09:44:21.415Z,40.13
2022-12-19T09:46:56.359Z,38.27
2022-12-19T09:49:28.173Z,41.60
2022-12-19T09:52:01.918Z,41.07
2022-12-19T09:54:36.372Z,39.37
2022-12-19T09:57:06.902Z,38.80
2022-12-19T09:59:49.398Z,38.00
2022-12-19T10:02:34.498Z,40.33
2022-12-19T10:05:12.883Z,39.03
2022-12-19T10:08:10.490Z,38.63
2022-12-19T10:12:38.877Z,38.40
2022-12-19T10:13:52.807Z,37.37
2022-12-19T10:16:29.412Z,39.40
2022-12-19T10:19:02.713Z,40.20
2022-12-19T10:22:16.928Z,39.70
2022-12-19T10:25:08.062Z,38.20
2022-12-19T10:27:58.753Z,36.83
2022-12-19T10:30:31.205Z,37.83
2022-12-19T10:33:11.811Z,37.97
2022-12-19T10:36:02.506Z,39.57
2022-12-19T10:38:38.383Z,38.60
2022-12-19T10:41:16.439Z,37.37
2022-12-19T10:43:55.312Z,38.80
2022-12-19T10:46:34.768Z,35.47
2022-12-19T10:49:07.862Z,40.40
2022-12-19T10:51:37.482Z,38.20
2022-12-19T10:54:05.670Z,38.23
2022-12-19T10:56:37.776Z,39.53
2022-12-19T10:59:17.650Z,36.90
2022-12-19T11:01:47.198Z,38.10
2022-12-19T11:04:32.497Z,36.40
2022-12-19T11:07:19.811Z,38.00
2022-12-19T11:09:57.327Z,37.87
2022-12-19T11:16:58.489Z,37.97
2022-12-19T11:19:47.138Z,41.20
2022-12-19T11:27:42.176Z,40.40
2022-12-19T11:29:30.994Z,41.57
2022-12-19T11:29:42.227Z,43.37
2022-12-19T11:30:43.937Z,42.33
2022-12-19T11:32:41.231Z,42.73
2022-12-19T11:35:19.683Z,43.37
2022-12-19T11:37:55.684Z,42.70
2022-12-19T11:40:34.516Z,41.80
2022-12-19T11:43:43.101Z,41.63
2022-12-19T11:46:01.977Z,42.77
2022-12-19T11:48:38.698Z,43.17
2022-12-19T11:51:15.913Z,43.63
2022-12-19T11:53:53.817Z,41.70
2022-12-19T11:56:25.716Z,41.80
2022-12-19T11:58:57.329Z,42.07
2022-12-19T12:01:51.253Z,42.80
2022-12-19T12:04:55.861Z,42.17
2022-12-19T12:08:11.564Z,42.23
2022-12-19T12:17:41.002Z,42.57
2022-12-19T12:24:19.859Z,43.07
2022-12-19T12:30:51.097Z,42.17
2022-12-19T12:31:23.775Z,44.57
2022-12-19T12:31:27.090Z,44.10
2022-12-19T12:31:38.889Z,43.47
2022-12-19T12:32:05.400Z,45.17
2022-12-19T12:35:51.822Z,44.80
2022-12-19T12:38:19.055Z,44.93
2022-12-19T12:40:52.653Z,45.27
2022-12-19T12:43:36.360Z,44.87
2022-12-19T12:46:05.548Z,45.03
2022-12-19T12:48:39.110Z,43.53
2022-12-19T12:51:08.423Z,45.27
2022-12-19T12:53:39.335Z,44.60
2022-12-19T12:56:10.949Z,44.90
2022-12-19T12:59:06.346Z,47.10
2022-12-19T13:01:37.698Z,45.63
2022-12-19T13:04:19.200Z,45.47
2022-12-19T13:07:24.981Z,46.50
2022-12-19T13:10:05.900Z,45.90
2022-12-19T13:12:51.389Z,44.70
2022-12-19T13:15:39.417Z,46.27
2022-12-19T13:18:40.397Z,44.60
2022-12-19T13:21:10.913Z,46.50
2022-12-19T13:24:16.140Z,46.93
2022-12-19T13:26:47.781Z,45.00
2022-12-19T13:29:31.010Z,44.50
2022-12-19T13:32:13.000Z,47.40
2022-12-19T13:34:42.346Z,47.47
2022-12-19T13:39:59.856Z,47.50
2022-12-19T13:40:32.466Z,47.40
2022-12-19T13:43:32.419Z,45.77
2022-12-19T13:46:03.027Z,46.87
2022-12-19T13:48:34.604Z,47.23
2022-12-19T13:51:07.118Z,48.27
2022-12-19T13:53:36.401Z,47.83
2022-12-19T13:56:06.506Z,47.40
2022-12-19T13:58:45.050Z,47.77
2022-12-19T14:01:21.517Z,49.57
2022-12-19T14:03:57.122Z,48.30
2022-12-19T14:06:39.381Z,49.20
2022-12-19T14:11:25.559Z,49.73
2022-12-19T14:13:46.799Z,48.10
2022-12-19T14:15:12.719Z,49.67
2022-12-19T14:17:42.481Z,48.87
2022-12-19T14:20:48.704Z,47.60
2022-12-19T14:23:08.060Z,45.53
2022-12-19T14:28:21.893Z,45.67
2022-12-19T14:28:38.200Z,46.73
2022-12-19T14:31:09.865Z,43.67
2022-12-19T14:33:59.006Z,43.30
2022-12-19T14:36:34.374Z,45.57
2022-12-19T14:39:22.026Z,45.70
2022-12-19T14:42:11.840Z,42.80
2022-12-19T14:51:25.179Z,43.33
2022-12-19T14:52:26.108Z,48.97
2022-12-19T14:54:18.342Z,42.10
2022-12-19T14:54:32.370Z,44.30
2022-12-19T14:59:03.137Z,42.80
2022-12-19T15:01:35.283Z,41.20
2022-12-19T15:04:51.893Z,38.77
2022-12-19T15:07:09.586Z,41.00
2022-12-19T15:11:06.499Z,37.87
2022-12-19T15:14:53.928Z,37.47
2022-12-19T15:16:04.029Z,39.03
2022-12-19T15:18:40.544Z,39.27
2022-12-19T15:21:10.964Z,37.80
2022-12-19T15:23:39.293Z,35.77
2022-12-19T15:26:13.661Z,35.93
2022-12-19T15:28:43.384Z,35.70
2022-12-19T15:31:32.229Z,36.43
2022-12-19T15:34:33.172Z,33.97
2022-12-19T15:36:49.051Z,34.67
2022-12-19T15:39:17.440Z,33.13
2022-12-19T15:41:49.908Z,33.67
2022-12-19T15:44:21.374Z,32.53
2022-12-19T15:46:50.151Z,32.23
2022-12-19T15:49:19.592Z,32.20
2022-12-19T15:51:48.509Z,32.73
2022-12-19T15:57:07.235Z,31.90
2022-12-19T15:59:39.842Z,31.60
2022-12-19T16:02:18.670Z,28.93
2022-12-19T16:04:48.675Z,30.37
2022-12-19T16:07:18.634Z,28.20
2022-12-19T16:09:46.763Z,28.70
2022-12-19T16:12:18.117Z,28.73
2022-12-19T16:14:47.638Z,31.70
2022-12-19T16:17:21.013Z,29.37
2022-12-19T16:19:49.237Z,29.60
2022-12-19T16:22:20.024Z,29.70
2022-12-19T16:24:48.203Z,27.33
2022-12-19T16:27:24.840Z,26.70
2022-12-19T16:29:54.005Z,26.63
2022-12-19T16:32:24.314Z,27.67
2022-12-19T16:34:53.441Z,27.43
2022-12-19T16:37:23.560Z,28.30
2022-12-19T16:39:55.334Z,27.27
2022-12-19T16:42:24.801Z,25.93
2022-12-19T16:44:53.691Z,27.37
2022-12-19T16:47:22.584Z,26.20
2022-12-19T16:49:50.765Z,26.33
2022-12-19T16:52:18.850Z,26.57
2022-12-19T16:54:46.962Z,26.63
2022-12-19T16:57:20.288Z,26.93
2022-12-19T16:59:50.962Z,27.37
2022-12-19T17:02:43.221Z,25.53
2022-12-19T17:05:23.143Z,26.50
2022-12-19T17:07:52.121Z,28.70
2022-12-19T17:10:26.049Z,28.17
2022-12-19T17:12:55.627Z,24.33
2022-12-19T17:15:28.079Z,25.33
2022-12-19T17:17:58.268Z,27.37
2022-12-19T17:20:29.810Z,27.30
2022-12-19T17:22:58.349Z,20.33
2022-12-19T17:25:28.471Z,25.50
2022-12-19T17:27:57.283Z,25.20
2022-12-19T17:30:26.795Z,24.10
2022-12-19T17:32:56.522Z,24.37
2022-12-19T17:35:28.276Z,25.60
2022-12-19T17:37:58.200Z,24.90
2022-12-19T17:40:29.638Z,23.97
2022-12-19T17:42:58.834Z,24.63
2022-12-19T17:45:30.631Z,22.63
2022-12-19T17:48:03.345Z,24.10
2022-12-19T17:50:35.703Z,22.93
2022-12-19T17:53:03.913Z,23.20
2022-12-19T17:55:32.207Z,23.00
2022-12-19T17:58:00.569Z,21.80
2022-12-19T18:00:33.108Z,27.80
2022-12-19T18:03:05.012Z,24.30
2022-12-19T18:05:35.852Z,21.03
2022-12-19T18:08:05.153Z,22.10
2022-12-19T18:10:36.107Z,21.10
2022-12-19T18:13:05.555Z,21.00
2022-12-19T18:15:36.348Z,21.37
2022-12-19T18:18:04.643Z,20.10
2022-12-19T18:20:36.150Z,20.17
2022-12-19T18:23:04.343Z,19.73
2022-12-19T18:25:35.188Z,18.90
2022-12-19T18:28:03.643Z,19.70
2022-12-19T18:30:31.878Z,17.93
2022-12-19T18:33:03.471Z,18.80
2022-12-19T18:35:35.842Z,17.80
2022-12-19T18:38:08.088Z,19.63
2022-12-19T18:40:36.320Z,17.87
2022-12-19T18:43:04.607Z,17.90
2022-12-19T18:45:37.239Z,16.17
2022-12-19T18:48:13.835Z,17.43
2022-12-19T18:50:42.084Z,19.70
2022-12-19T18:53:12.960Z,18.27
2022-12-19T18:55:41.104Z,18.10
2022-12-19T18:58:09.196Z,15.93
2022-12-19T19:00:39.846Z,15.70
2022-12-19T19:03:15.296Z,16.10
2022-12-19T19:05:44.052Z,17.07
2022-12-19T19:08:19.024Z,15.60
2022-12-19T19:10:55.118Z,15.87
2022-12-19T19:13:25.551Z,15.50
2022-12-19T19:15:55.857Z,16.07
2022-12-19T19:18:29.925Z,15.93
2022-12-19T19:21:01.237Z,15.80
2022-12-19T19:23:34.976Z,16.10
2022-12-19T19:26:03.538Z,16.00
2022-12-19T19:28:32.211Z,15.00
2022-12-19T19:31:02.107Z,15.77
2022-12-19T19:33:34.957Z,14.90
2022-12-19T19:36:11.998Z,14.50
2022-12-19T19:38:43.786Z,14.60
2022-12-19T19:41:12.664Z,13.30
2022-12-19T19:43:41.243Z,14.73
2022-12-19T19:46:09.920Z,13.50
2022-12-19T19:48:41.336Z,13.67
2022-12-19T19:51:09.682Z,13.93
2022-12-19T19:53:37.862Z,13.33
2022-12-19T19:56:06.379Z,13.07
2022-12-19T19:58:34.716Z,12.77
2022-12-19T20:01:08.666Z,12.17
2022-12-19T20:03:36.996Z,13.00
2022-12-19T20:06:07.811Z,13.80
2022-12-19T20:08:39.782Z,11.83
2022-12-19T20:11:10.535Z,12.93
2022-12-19T20:13:39.279Z,13.07
2022-12-19T20:16:09.762Z,12.50
2022-12-19T20:18:39.845Z,11.77
2022-12-19T20:21:13.532Z,12.67
2022-12-19T20:23:44.182Z,12.90
2022-12-19T20:26:14.057Z,12.77
2022-12-19T20:28:48.310Z,13.27
2022-12-19T20:31:17.677Z,12.37
2022-12-19T20:33:46.380Z,12.63
2022-12-19T20:36:17.759Z,11.90
2022-12-19T20:38:46.004Z,13.00
2022-12-19T20:41:14.444Z,13.10
2022-12-19T20:43:43.105Z,12.97
2022-12-19T20:46:13.232Z,12.17
2022-12-19T20:48:42.230Z,12.97
2022-12-19T20:51:11.010Z,12.20
2022-12-19T20:53:41.652Z,13.20
2022-12-19T20:56:12.868Z,13.20
2022-12-19T20:58:41.125Z,11.93
2022-12-19T21:01:11.121Z,11.30
2022-12-19T21:03:40.107Z,12.70
2022-12-19T21:06:10.349Z,11.30
2022-12-19T21:08:40.557Z,11.47
2022-12-19T21:11:10.511Z,10.93
2022-12-19T21:13:39.649Z,12.77
2022-12-19T21:16:10.164Z,12.27
2022-12-19T21:18:40.391Z,11.50
2022-12-19T21:21:11.910Z,12.37
2022-12-19T21:23:41.524Z,11.50
2022-12-19T21:26:09.669Z,12.20
2022-12-19T21:28:38.473Z,11.97
2022-12-19T21:31:17.257Z,11.77
2022-12-19T21:33:46.925Z,11.13
2022-12-19T21:36:18.969Z,12.57
2022-12-19T21:38:49.744Z,12.37
2022-12-19T21:41:19.144Z,10.67
2022-12-19T21:43:48.956Z,11.33
2022-12-19T21:46:18.333Z,11.50
2022-12-19T21:48:48.667Z,10.90
2022-12-19T21:51:18.481Z,11.07
2022-12-19T21:53:49.619Z,11.33
2022-12-19T21:56:26.524Z,11.50
2022-12-19T21:58:56.380Z,11.03
2022-12-19T22:01:25.331Z,11.37
2022-12-19T22:03:53.786Z,12.00
2022-12-19T22:06:28.442Z,11.30
2022-12-19T22:08:58.146Z,11.60
2022-12-19T22:11:26.350Z,11.50
2022-12-19T22:13:56.042Z,11.57
2022-12-19T22:16:24.269Z,11.30
2022-12-19T22:18:53.117Z,11.47
2022-12-19T22:21:22.246Z,11.17
2022-12-19T22:23:50.538Z,10.93
2022-12-19T22:26:21.987Z,11.30
2022-12-19T22:28:52.115Z,11.27
2022-12-19T22:31:22.647Z,10.50
2022-12-19T22:34:06.752Z,11.30
2022-12-19T22:36:36.129Z,11.90
2022-12-19T22:39:06.235Z,10.30
2022-12-19T22:41:36.829Z,11.00
2022-12-19T22:44:05.363Z,11.17
2022-12-19T22:46:35.716Z,12.80
2022-12-19T22:49:05.279Z,11.47
2022-12-19T22:51:37.040Z,10.93
2022-12-19T22:54:06.013Z,11.10
2022-12-19T22:56:36.636Z,11.20
2022-12-19T22:59:07.152Z,10.87
2022-12-19T23:01:37.810Z,10.93
2022-12-19T23:04:07.786Z,10.40
2022-12-19T23:06:37.846Z,11.57
2022-12-19T23:09:06.937Z,10.90
2022-12-19T23:11:39.614Z,10.70
2022-12-19T23:14:09.644Z,10.53
2022-12-19T23:16:37.964Z,11.27
2022-12-19T23:19:06.555Z,10.80
2022-12-19T23:21:34.655Z,11.20
2022-12-19T23:24:02.819Z,10.67
2022-12-19T23:26:33.328Z,10.10
2022-12-19T23:29:05.126Z,10.40
2022-12-19T23:31:34.486Z,10.17
2022-12-19T23:34:03.085Z,10.80
2022-12-19T23:39:19.507Z,9.17
2022-12-19T23:41:47.626Z,10.60
2022-12-19T23:44:17.431Z,10.63
2022-12-19T23:46:45.523Z,9.80
2022-12-19T23:49:13.716Z,10.23
2022-12-19T23:51:41.770Z,11.17
2022-12-19T23:54:09.808Z,9.90
2022-12-19T23:56:38.178Z,9.13
2022-12-19T23:59:06.462Z,9.77
